Ryoei Maru — JL6703 — position and weather

sailwx.info

Track history (hours):
 
Tides and Currents Weather Stations Pressure Air Temp Water Temp Dewpoint Dewpoint Depression Visibility Wind Speed Wind Dir Waves Ship Positions

Ryoei Maru

Last reported at 2016-Dec-04 15:33 UTC. Time now 2016-Dec-08 20:16 UTC.
Position N 34°01' E 134°59'.

Length 95 m; draft 5 m.

Type: Cargo ship. MMSI: 431501749.

Date/timePositionNaut miles runAvg speedWind from/ knotsBaromVisibWave heightAir tempDewpointWater temp
2016-Dec-04 15:33N 34°01' E 134°59'1413.7
2016-Dec-04 14:33N 34°15' E 134°59'1212.1
2016-Dec-04 13:33N 34°26' E 135°05'1313.2
2016-Dec-04 12:33N 34°34' E 135°17'8 7.2
2016-Dec-04 11:30N 34°37' E 135°26'0 0.0
2016-Dec-04 10:30N 34°37' E 135°26'0 0.0
2016-Dec-04 09:30N 34°37' E 135°26'0 0.0
2016-Dec-04 08:30N 34°37' E 135°26'0 0.0
2016-Dec-04 07:06N 34°37' E 135°26'0 0.0
2016-Dec-04 06:30N 34°37' E 135°26'0 0.0
2016-Dec-04 05:30N 34°37' E 135°26'0 0.0
2016-Dec-04 04:30N 34°37' E 135°26'0 0.0
2016-Dec-04 03:30N 34°37' E 135°26'0 0.0
2016-Dec-04 02:30N 34°37' E 135°26'0 0.0
2016-Dec-04 01:30N 34°37' E 135°26'0 0.0
2016-Dec-04 00:24N 34°37' E 135°26'0 0.0
2016-Dec-03 23:24N 34°37' E 135°26'0 0.0
2016-Dec-03 22:25N 34°37' E 135°26'5 5.8
2016-Dec-03 21:33N 34°35' E 135°20'1211.7
2016-Dec-03 20:33N 34°27' E 135°10'1211.6
2016-Dec-03 19:31N 34°18' E 135°00'1110.9
2016-Dec-03 18:33N 34°07' E 135°00'  
2016-Nov-28 16:31N 33°57' E 134°59'1314.1
2016-Nov-28 15:33N 34°10' E 134°59'1414.3
2016-Nov-28 14:33N 34°24' E 135°03'1414.0
2016-Nov-28 13:33N 34°34' E 135°15'9 0.6
2016-Nov-27 23:30N 34°37' E 135°26'6 6.8
2016-Nov-27 22:33N 34°34' E 135°19'1312.6
2016-Nov-27 21:32N 34°25' E 135°08'1212.4
2016-Nov-27 20:33N 34°15' E 134°60'1212.2
2016-Nov-27 19:33N 34°02' E 135°00'  
Track history (hours):
 
Tides and Currents Weather Stations Pressure Air Temp Water Temp Dewpoint Dewpoint Depression Visibility Wind Speed Wind Dir Waves Ship Positions

Ryoei Maru

Last reported at 2016-Dec-04 15:33 UTC. Time now 2016-Dec-08 20:16 UTC.
Position N 34°01' E 134°59'.

Length 95 m; draft 5 m.

Type: Cargo ship. MMSI: 431501749.

Date/timePositionNaut miles runAvg speedWind from/ knotsBaromVisibWave heightAir tempDewpointWater temp
2016-Dec-04 15:33N 34°01' E 134°59'1413.7
2016-Dec-04 14:33N 34°15' E 134°59'1212.1
2016-Dec-04 13:33N 34°26' E 135°05'1313.2
2016-Dec-04 12:33N 34°34' E 135°17'8 7.2
2016-Dec-04 11:30N 34°37' E 135°26'0 0.0
2016-Dec-04 10:30N 34°37' E 135°26'0 0.0
2016-Dec-04 09:30N 34°37' E 135°26'0 0.0
2016-Dec-04 08:30N 34°37' E 135°26'0 0.0
2016-Dec-04 07:06N 34°37' E 135°26'0 0.0
2016-Dec-04 06:30N 34°37' E 135°26'0 0.0
2016-Dec-04 05:30N 34°37' E 135°26'0 0.0
2016-Dec-04 04:30N 34°37' E 135°26'0 0.0
2016-Dec-04 03:30N 34°37' E 135°26'0 0.0
2016-Dec-04 02:30N 34°37' E 135°26'0 0.0
2016-Dec-04 01:30N 34°37' E 135°26'0 0.0
2016-Dec-04 00:24N 34°37' E 135°26'0 0.0
2016-Dec-03 23:24N 34°37' E 135°26'0 0.0
2016-Dec-03 22:25N 34°37' E 135°26'5 5.8
2016-Dec-03 21:33N 34°35' E 135°20'1211.7
2016-Dec-03 20:33N 34°27' E 135°10'1211.6
2016-Dec-03 19:31N 34°18' E 135°00'1110.9
2016-Dec-03 18:33N 34°07' E 135°00'  
2016-Nov-28 16:31N 33°57' E 134°59'1314.1
2016-Nov-28 15:33N 34°10' E 134°59'1414.3
2016-Nov-28 14:33N 34°24' E 135°03'1414.0
2016-Nov-28 13:33N 34°34' E 135°15'9 0.6
2016-Nov-27 23:30N 34°37' E 135°26'6 6.8
2016-Nov-27 22:33N 34°34' E 135°19'1312.6
2016-Nov-27 21:32N 34°25' E 135°08'1212.4
2016-Nov-27 20:33N 34°15' E 134°60'1212.2
2016-Nov-27 19:33N 34°02' E 135°00'  

Dump ship's entire track history